Time;durP1;ratioP1;P1;durP2;ratioP2;P2;SDS_P1;SDS_P2;PMS_P1;PMS_P2;Temp;Humidity;BMP_temperature;BMP_pressure;BME280_temperature;BME280_humidity;BME280_pressure;Samples;Min_cycle;Max_cycle;Signal;HPM_P1;HPM_P2
2022/04/16 00:02:56;;;;;;;1.73;1.20;;;13.10;99.90;;;;;;21000980;28;20074;-74
2022/04/16 00:12:57;;;;;;;2.33;1.20;;;13.00;99.90;;;;;;21001388;28;20035;-74
2022/04/16 00:22:58;;;;;;;2.67;1.20;;;12.90;99.90;;;;;;20997893;28;20056;-74
2022/04/16 00:33:00;;;;;;;1.80;1.10;;;12.80;99.90;;;;;;20997106;28;20039;-73
2022/04/16 00:43:02;;;;;;;3.42;1.77;;;12.70;99.90;;;;;;20996009;28;20119;-72
2022/04/16 00:53:03;;;;;;;3.47;1.73;;;12.60;99.90;;;;;;20976982;28;20082;-73
2022/04/16 01:03:06;;;;;;;3.20;1.60;;;12.40;99.90;;;;;;20993811;28;20550;-74
2022/04/16 01:13:07;;;;;;;1.88;1.40;;;12.30;99.90;;;;;;20993236;28;20466;-73
2022/04/16 01:23:08;;;;;;;;;;;12.00;99.90;;;;;;20992755;28;20042;-73
2022/04/16 01:33:10;;;;;;;5.25;1.88;;;11.80;99.90;;;;;;20991838;28;19959;-72
2022/04/16 01:43:11;;;;;;;3.97;1.85;;;11.70;99.90;;;;;;20990575;28;20029;-74
2022/04/16 01:53:12;;;;;;;11.67;1.70;;;11.50;99.90;;;;;;20973092;28;20399;-73
2022/04/16 02:03:14;;;;;;;3.80;1.65;;;11.60;99.90;;;;;;20990911;28;20024;-74
2022/04/16 02:13:15;;;;;;;2.78;1.95;;;11.50;99.90;;;;;;20990361;28;20108;-73
2022/04/16 02:23:16;;;;;;;10.47;2.17;;;11.50;99.90;;;;;;20989896;28;20064;-73
2022/04/16 02:33:17;;;;;;;3.47;2.40;;;11.40;99.90;;;;;;20989458;28;20100;-73
2022/04/16 02:43:18;;;;;;;4.63;2.20;;;11.00;99.90;;;;;;20989163;28;20056;-74
2022/04/16 02:53:19;;;;;;;6.57;2.50;;;10.80;99.90;;;;;;20972877;28;20509;-74
2022/04/16 03:03:22;;;;;;;8.27;2.80;;;10.70;99.90;;;;;;21003946;28;20020;-74
2022/04/16 03:13:22;;;;;;;3.08;2.42;;;10.50;99.90;;;;;;21002672;28;20036;-74
2022/04/16 03:23:23;;;;;;;5.80;2.87;;;10.40;99.90;;;;;;21002104;28;20481;-73
2022/04/16 03:33:24;;;;;;;4.93;3.00;;;10.40;99.90;;;;;;21001149;28;20031;-74
2022/04/16 03:43:29;;;;;;;4.73;3.33;;;10.20;99.90;;;;;;21000642;28;20122;-74
2022/04/16 03:53:30;;;;;;;6.40;3.15;;;10.00;99.90;;;;;;20999522;28;20032;-74
2022/04/16 04:03:31;;;;;;;6.77;3.50;;;9.90;99.90;;;;;;20982074;28;20049;-74
2022/04/16 04:13:31;;;;;;;8.10;3.63;;;9.50;99.90;;;;;;20997827;28;20028;-74
2022/04/16 04:23:32;;;;;;;5.10;3.53;;;9.50;99.90;;;;;;20993706;22;20045;-77
2022/04/16 04:33:33;;;;;;;6.53;3.30;;;9.30;99.90;;;;;;20871239;28;20062;-77
2022/04/16 04:43:34;;;;;;;4.53;2.73;;;8.90;99.90;;;;;;20813168;28;20037;-77
2022/04/16 04:53:35;;;;;;;8.40;4.03;;;9.00;99.90;;;;;;20829907;28;20037;-77
2022/04/16 05:03:35;;;;;;;10.03;4.07;;;9.00;99.90;;;;;;20833091;28;20526;-77
2022/04/16 05:13:36;;;;;;;11.97;4.23;;;9.00;99.90;;;;;;20844678;28;20025;-77
2022/04/16 05:23:39;;;;;;;10.40;4.67;;;9.10;99.90;;;;;;20853596;28;20036;-77
2022/04/16 05:44:00;;;;;;;12.05;5.18;;;9.40;99.90;;;;;;20826357;28;20040;-77
2022/04/16 05:54:02;;;;;;;;;;;9.90;99.90;;;;;;20832226;28;20048;-78
2022/04/16 06:04:03;;;;;;;8.10;5.07;;;10.30;99.90;;;;;;20809466;28;20371;-76
2022/04/16 06:14:04;;;;;;;7.80;4.60;;;10.80;99.90;;;;;;20825684;28;20033;-76
2022/04/16 06:24:05;;;;;;;6.73;4.93;;;11.20;99.90;;;;;;20851085;28;20047;-76
2022/04/16 06:34:05;;;;;;;5.60;3.57;;;11.70;99.90;;;;;;20860839;28;20542;-76
2022/04/16 06:44:06;;;;;;;22.30;3.93;;;12.20;99.90;;;;;;20822024;28;20059;-76
2022/04/16 06:54:07;;;;;;;8.70;3.27;;;12.20;99.90;;;;;;20839096;28;20029;-75
2022/04/16 07:04:08;;;;;;;3.93;2.80;;;12.60;99.90;;;;;;20821481;28;20037;-75
2022/04/16 07:14:09;;;;;;;3.67;2.40;;;13.50;99.90;;;;;;20843541;28;20064;-74
2022/04/16 07:24:10;;;;;;;4.13;2.80;;;13.40;99.90;;;;;;20830209;28;20044;-74
2022/04/16 07:34:11;;;;;;;7.73;2.77;;;13.50;99.90;;;;;;20849956;28;20564;-74
2022/04/16 07:44:11;;;;;;;5.17;2.97;;;13.80;99.90;;;;;;20878744;28;20040;-74
2022/04/16 07:54:12;;;;;;;5.67;2.90;;;14.60;99.90;;;;;;20881906;28;20037;-74
2022/04/16 08:04:13;;;;;;;5.07;3.17;;;14.40;99.90;;;;;;20934764;28;20050;-75
2022/04/16 08:14:14;;;;;;;4.77;3.13;;;15.10;99.90;;;;;;20954532;28;20032;-75
2022/04/16 08:34:46;;;;;;;4.75;3.10;;;15.20;99.90;;;;;;20866639;28;20052;-75
2022/04/16 08:44:47;;;;;;;6.27;2.93;;;14.90;99.90;;;;;;20898110;28;20094;-75
2022/04/16 08:54:48;;;;;;;13.90;4.80;;;15.60;99.90;;;;;;20896886;28;20462;-75
2022/04/16 09:05:00;;;;;;;4.53;2.40;;;16.20;99.90;;;;;;20884552;28;20037;-76
2022/04/16 09:15:08;;;;;;;10.43;2.63;;;16.10;99.90;;;;;;20854250;28;20037;-75
2022/04/16 09:25:17;;;;;;;4.60;2.10;;;16.10;99.90;;;;;;20857642;28;20029;-76
2022/04/16 09:35:38;;;;;;;3.05;2.13;;;17.20;99.90;;;;;;20861355;28;20106;-76
2022/04/16 09:45:41;;;;;;;3.53;2.23;;;17.90;99.90;;;;;;20857786;28;20044;-76
2022/04/16 09:55:43;;;;;;;4.47;2.22;;;16.60;99.90;;;;;;20869731;28;20734;-76
2022/04/16 10:05:44;;;;;;;4.03;3.37;;;17.00;99.90;;;;;;20883742;28;20044;-78
2022/04/16 10:16:21;;;;;;;5.97;3.83;;;16.10;99.90;;;;;;20893440;28;20126;-78
2022/04/16 10:26:22;;;;;;;15.48;4.65;;;15.80;99.90;;;;;;20911034;22;20653;-74
2022/04/16 10:36:28;;;;;;;4.40;2.80;;;16.00;99.90;;;;;;20886290;28;20044;-74
2022/04/16 10:46:44;;;;;;;3.97;2.17;;;16.20;99.90;;;;;;20955516;28;20522;-74
2022/04/16 10:56:52;;;;;;;2.40;1.50;;;15.60;99.90;;;;;;20933297;28;20530;-75
2022/04/16 11:06:57;;;;;;;2.90;2.35;;;15.30;99.90;;;;;;20924869;28;20546;-74
2022/04/16 11:17:03;;;;;;;2.72;1.50;;;15.30;99.90;;;;;;20935253;28;20045;-75
2022/04/16 11:37:24;;;;;;;2.28;1.27;;;19.20;99.90;;;;;;20926907;28;20060;-73
2022/04/16 11:47:27;;;;;;;1.83;1.20;;;19.60;99.90;;;;;;20936472;28;20510;-73
2022/04/16 11:57:28;;;;;;;3.10;1.10;;;20.30;99.90;;;;;;20941132;28;20072;-73
2022/04/16 12:07:30;;;;;;;33.43;15.87;;;20.40;99.90;;;;;;20941760;28;20075;-73
2022/04/16 12:17:31;;;;;;;4.80;4.03;;;20.30;98.20;;;;;;20938395;28;20131;-73
2022/04/16 12:27:32;;;;;;;2.13;1.50;;;20.30;98.20;;;;;;20937866;28;20335;-73
2022/04/16 12:37:32;;;;;;;1.90;1.40;;;20.20;99.40;;;;;;20935656;28;20036;-73
2022/04/16 12:47:33;;;;;;;2.90;1.80;;;20.40;97.20;;;;;;20934180;28;20040;-73
2022/04/16 12:57:34;;;;;;;5.03;1.57;;;19.40;97.90;;;;;;20935294;28;20039;-73
2022/04/16 13:07:39;;;;;;;2.73;1.30;;;19.60;99.10;;;;;;20947224;28;20051;-73
2022/04/16 13:17:40;;;;;;;2.50;1.58;;;19.60;96.20;;;;;;20939870;28;20068;-73
2022/04/16 13:27:41;;;;;;;2.27;1.57;;;19.30;96.70;;;;;;20925283;28;20115;-73
2022/04/16 13:37:42;;;;;;;3.43;1.70;;;19.60;97.00;;;;;;20931276;28;20521;-74
2022/04/16 13:47:43;;;;;;;7.40;2.67;;;19.20;98.50;;;;;;20944307;28;20044;-73
2022/04/16 13:57:44;;;;;;;4.60;2.07;;;18.80;97.80;;;;;;20936391;28;20075;-73
2022/04/16 14:07:45;;;;;;;2.80;1.80;;;18.50;98.50;;;;;;20920359;28;20097;-72
2022/04/16 14:17:46;;;;;;;2.73;1.70;;;17.90;99.90;;;;;;20927843;28;20569;-72
2022/04/16 14:27:47;;;;;;;3.70;2.33;;;18.00;99.90;;;;;;20910469;28;20029;-72
2022/04/16 14:37:47;;;;;;;4.63;3.60;;;18.20;99.60;;;;;;20968750;28;20051;-72
2022/04/16 14:47:48;;;;;;;3.50;2.80;;;18.00;99.90;;;;;;20968313;28;20058;-72
2022/04/16 14:57:49;;;;;;;4.40;3.17;;;17.30;99.90;;;;;;20983908;28;20037;-72
2022/04/16 15:07:50;;;;;;;6.57;2.33;;;17.50;99.90;;;;;;20983243;28;20044;-72
2022/04/16 15:17:51;;;;;;;5.47;2.80;;;16.20;99.90;;;;;;20982893;28;20036;-72
2022/04/16 15:27:52;;;;;;;3.83;2.60;;;16.40;99.90;;;;;;20981091;28;20076;-72
2022/04/16 15:37:55;;;;;;;4.47;2.20;;;16.80;99.90;;;;;;20979671;28;20047;-72
2022/04/16 15:47:56;;;;;;;4.22;2.85;;;15.50;99.90;;;;;;20937241;28;20772;-72
2022/04/16 15:57:56;;;;;;;5.77;3.17;;;15.80;99.90;;;;;;20951399;28;20343;-72
2022/04/16 16:07:57;;;;;;;3.80;2.63;;;15.40;99.90;;;;;;20942709;28;20058;-72
2022/04/16 16:17:58;;;;;;;3.90;2.70;;;14.40;99.90;;;;;;20932547;28;20048;-71
2022/04/16 16:27:59;;;;;;;3.73;2.20;;;13.70;99.90;;;;;;20940628;22;20749;-75
2022/04/16 16:38:00;;;;;;;6.57;2.23;;;14.20;99.90;;;;;;20913665;28;20090;-75
2022/04/16 16:48:01;;;;;;;3.33;2.00;;;14.00;99.90;;;;;;20872152;28;20037;-75
2022/04/16 16:58:02;;;;;;;4.17;2.40;;;14.20;99.90;;;;;;20828277;28;20029;-75
2022/04/16 17:08:03;;;;;;;2.33;1.87;;;14.10;99.90;;;;;;20864570;28;20037;-75
2022/04/16 17:28:27;;;;;;;4.97;2.15;;;13.30;99.90;;;;;;20838044;28;20854;-75
2022/04/16 17:38:28;;;;;;;3.00;1.80;;;13.40;99.90;;;;;;20851818;28;20048;-75
2022/04/16 17:48:29;;;;;;;2.63;1.73;;;13.30;99.90;;;;;;20857526;28;20067;-74
2022/04/16 17:58:30;;;;;;;9.13;2.47;;;13.00;99.90;;;;;;20862094;28;20551;-75
2022/04/16 18:08:30;;;;;;;4.10;2.40;;;12.60;99.90;;;;;;20836326;28;20049;-75
2022/04/16 18:18:32;;;;;;;5.80;3.83;;;12.40;99.90;;;;;;20864080;28;20037;-75
2022/04/16 18:28:33;;;;;;;9.20;6.53;;;11.90;99.90;;;;;;20889895;28;20040;-77
2022/04/16 18:38:34;;;;;;;7.50;4.10;;;11.70;99.90;;;;;;20897101;28;20580;-76
2022/04/16 18:48:35;;;;;;;3.27;2.23;;;11.40;99.90;;;;;;20854766;28;20434;-76
2022/04/16 18:58:35;;;;;;;3.47;2.00;;;11.30;99.90;;;;;;20900198;28;20051;-76
2022/04/16 19:08:38;;;;;;;5.10;2.37;;;11.20;99.90;;;;;;20870074;28;20036;-76
2022/04/16 19:18:39;;;;;;;5.53;2.88;;;10.80;99.90;;;;;;20858042;28;20033;-75
2022/04/16 19:28:40;;;;;;;3.53;2.07;;;10.70;99.90;;;;;;20857434;28;20034;-74
2022/04/16 19:38:41;;;;;;;4.10;2.17;;;10.50;99.90;;;;;;20863650;28;20036;-75
2022/04/16 19:48:42;;;;;;;4.67;2.47;;;10.30;99.90;;;;;;20855580;28;20041;-74
2022/04/16 19:58:44;;;;;;;3.30;1.83;;;10.10;99.90;;;;;;20834106;28;20644;-74
2022/04/16 20:19:05;;;;;;;3.90;2.50;;;9.80;99.90;;;;;;20858707;28;20033;-74
2022/04/16 20:29:05;;;;;;;5.15;2.38;;;9.80;99.90;;;;;;20867409;28;20024;-75
2022/04/16 20:39:06;;;;;;;5.67;3.03;;;9.70;99.90;;;;;;20860597;28;20030;-75
2022/04/16 20:49:07;;;;;;;5.50;2.83;;;9.70;99.90;;;;;;20848473;28;20116;-76
2022/04/16 20:59:08;;;;;;;6.57;2.77;;;9.60;99.90;;;;;;20844401;28;20064;-75
2022/04/16 21:09:09;;;;;;;5.80;2.33;;;9.50;99.90;;;;;;20870424;28;20100;-75
2022/04/16 21:19:09;;;;;;;4.23;2.17;;;9.40;99.90;;;;;;20910898;28;20040;-75
2022/04/16 21:29:11;;;;;;;3.57;2.30;;;9.30;99.90;;;;;;20908541;28;20037;-75
2022/04/16 21:39:12;;;;;;;4.18;2.45;;;9.20;99.90;;;;;;20909464;28;20033;-76
2022/04/16 21:49:13;;;;;;;8.93;2.83;;;9.20;99.90;;;;;;20908647;28;20479;-75
2022/04/16 21:59:14;;;;;;;6.47;2.67;;;9.00;99.90;;;;;;20907400;28;20059;-75
2022/04/16 22:09:17;;;;;;;7.10;2.57;;;8.90;99.90;;;;;;20908420;28;20033;-75
2022/04/16 22:19:19;;;;;;;3.50;2.50;;;8.80;99.90;;;;;;20907568;28;20083;-75
2022/04/16 22:29:20;;;;;;;;;;;8.70;99.90;;;;;;20923330;22;20517;-75
2022/04/16 22:49:40;;;;;;;3.83;2.67;;;8.50;99.90;;;;;;20823811;28;20111;-75
2022/04/16 22:59:41;;;;;;;4.23;2.80;;;8.40;99.90;;;;;;20823428;28;20021;-75
2022/04/16 23:09:41;;;;;;;4.13;2.60;;;8.40;99.90;;;;;;20824769;28;20033;-76
2022/04/16 23:19:43;;;;;;;4.87;2.83;;;8.30;99.90;;;;;;20842539;28;20442;-75
2022/04/16 23:29:43;;;;;;;4.88;2.60;;;8.30;99.90;;;;;;20872975;28;20038;-75
2022/04/16 23:39:44;;;;;;;4.80;3.17;;;8.30;99.90;;;;;;20863445;28;20021;-75
2022/04/16 23:49:45;;;;;;;5.60;3.20;;;8.10;99.90;;;;;;20852998;28;20021;-74
2022/04/16 23:59:46;;;;;;;4.17;2.93;;;7.90;99.90;;;;;;20861959;28;20025;-75
